コロンボ の空港の天気 - METARとTAF

バンダラナイケ国際空港 ( VCBI / CMB ) - スリランカ コロンボ
飛行場実況気象(Metar)
観測時間11/14 22:40 IST (11/14 17:10 UTC)
風向・風速不定 1m/s
視程7000m
天気現象
なし
気温25℃
湿度89%
気圧1010hPa
METARVCBI 141710Z VRB02KT 7000 NSC 25/23 Q1010 NOSIG
過去の天気等 Google飛行場航空写真 Wunderground天気予報

過去48時間のMETAR

飛行場予報(TAF)
発表時間: 11/14 22:30 IST (11/14 17:00 UTC)
予報対象時間: 14日23時 IST ~ 16日5時 IST
風向・風速不定 3m/s
15日4時 IST ~ 15日5時 IST に徐々に
15日8時 IST ~ 15日9時 IST に徐々に
視程9000m
TAF VCBI 141700Z 1418/1524 VRB05KT 5000BR FEW018 TX31/1507Z TN22/1500Z
BECMG 1423/1500 3000BR
BECMG 1503/1504 9000